createdAt,value
2019-01-30T00:01:37.323Z,100.00
2019-01-30T00:04:05.389Z,100.00
2019-01-30T00:06:32.955Z,100.00
2019-01-30T00:09:00.408Z,100.00
2019-01-30T00:11:27.780Z,100.00
2019-01-30T00:13:55.204Z,100.00
2019-01-30T00:16:22.639Z,100.00
2019-01-30T00:18:50.007Z,100.00
2019-01-30T00:21:17.529Z,100.00
2019-01-30T00:23:44.970Z,100.00
2019-01-30T00:26:12.434Z,100.00
2019-01-30T00:28:39.910Z,100.00
2019-01-30T00:31:07.352Z,100.00
2019-01-30T00:33:34.899Z,100.00
2019-01-30T00:36:02.468Z,100.00
2019-01-30T00:38:29.896Z,100.00
2019-01-30T00:40:57.320Z,100.00
2019-01-30T00:43:24.757Z,100.00
2019-01-30T00:45:52.327Z,100.00
2019-01-30T00:48:19.786Z,100.00
2019-01-30T00:50:47.276Z,100.00
2019-01-30T00:53:14.705Z,100.00
2019-01-30T00:55:42.178Z,100.00
2019-01-30T00:58:09.619Z,100.00
2019-01-30T01:00:37.240Z,100.00
2019-01-30T01:03:04.926Z,100.00
2019-01-30T01:05:32.790Z,100.00
2019-01-30T01:08:00.348Z,100.00
2019-01-30T01:10:27.771Z,100.00
2019-01-30T01:12:55.223Z,100.00
2019-01-30T01:15:22.666Z,100.00
2019-01-30T01:17:50.099Z,100.00
2019-01-30T01:20:17.840Z,100.00
2019-01-30T01:22:45.622Z,100.00
2019-01-30T01:25:14.323Z,100.00
2019-01-30T01:27:42.200Z,100.00
2019-01-30T01:30:24.842Z,100.00
2019-01-30T01:32:46.921Z,100.00
2019-01-30T01:35:14.555Z,100.00
2019-01-30T01:37:42.002Z,100.00
2019-01-30T01:40:11.448Z,100.00
2019-01-30T01:42:38.932Z,100.00
2019-01-30T01:45:08.605Z,100.00
2019-01-30T01:47:36.193Z,100.00
2019-01-30T01:50:05.541Z,100.00
2019-01-30T01:52:32.971Z,100.00
2019-01-30T01:55:00.386Z,100.00
2019-01-30T01:57:27.825Z,100.00
2019-01-30T01:59:55.307Z,100.00
2019-01-30T02:02:22.745Z,100.00
2019-01-30T02:04:50.250Z,100.00
2019-01-30T02:07:17.722Z,100.00
2019-01-30T02:09:45.186Z,100.00
2019-01-30T02:12:12.669Z,100.00
2019-01-30T02:14:40.070Z,100.00
2019-01-30T02:17:07.502Z,100.00
2019-01-30T02:19:34.961Z,100.00
2019-01-30T02:22:02.356Z,100.00
2019-01-30T02:24:29.783Z,100.00
2019-01-30T02:26:57.235Z,100.00
2019-01-30T02:29:24.596Z,100.00
2019-01-30T02:31:52.054Z,100.00
2019-01-30T02:34:19.536Z,100.00
2019-01-30T02:36:55.976Z,100.00
2019-01-30T02:39:23.665Z,100.00
2019-01-30T02:41:51.494Z,100.00
2019-01-30T02:44:18.946Z,100.00
2019-01-30T02:46:46.467Z,100.00
2019-01-30T02:49:13.952Z,100.00
2019-01-30T02:51:41.326Z,100.00
2019-01-30T02:54:08.810Z,95.13
2019-01-30T02:56:36.265Z,96.33
2019-01-30T02:59:03.791Z,96.82
2019-01-30T03:01:33.122Z,98.07
2019-01-30T03:04:00.529Z,99.43
2019-01-30T03:06:27.969Z,99.27
2019-01-30T03:08:55.403Z,97.98
2019-01-30T03:11:22.827Z,96.06
2019-01-30T03:13:50.267Z,97.98
2019-01-30T03:16:17.838Z,99.76
2019-01-30T03:18:45.292Z,99.72
2019-01-30T03:21:12.700Z,100.00
2019-01-30T03:23:40.160Z,100.00
2019-01-30T03:26:07.602Z,100.00
2019-01-30T03:28:35.010Z,100.00
2019-01-30T03:31:17.012Z,99.79
2019-01-30T03:33:31.928Z,99.80
2019-01-30T03:35:59.367Z,96.29
2019-01-30T03:38:26.793Z,96.99
2019-01-30T03:40:54.208Z,97.03
2019-01-30T03:43:21.630Z,96.27
2019-01-30T03:45:49.254Z,95.88
2019-01-30T03:48:16.806Z,95.27
2019-01-30T03:50:44.293Z,95.18
2019-01-30T03:53:11.672Z,94.69
2019-01-30T03:55:39.083Z,94.05
2019-01-30T03:58:06.507Z,93.09
2019-01-30T04:00:33.886Z,92.70
2019-01-30T04:03:01.411Z,92.31
2019-01-30T04:05:28.869Z,92.29
2019-01-30T04:07:56.309Z,92.04
2019-01-30T04:10:23.809Z,92.07
2019-01-30T04:12:51.579Z,94.84
2019-01-30T04:15:19.244Z,95.29
2019-01-30T04:17:46.749Z,94.10
2019-01-30T04:20:16.433Z,93.11
2019-01-30T04:22:44.039Z,93.77
2019-01-30T04:25:11.580Z,94.47
2019-01-30T04:27:39.036Z,95.63
2019-01-30T04:30:10.152Z,96.30
2019-01-30T04:32:37.747Z,96.28
2019-01-30T04:35:05.610Z,97.23
2019-01-30T04:37:33.030Z,98.84
2019-01-30T04:40:00.476Z,100.00
2019-01-30T04:42:27.964Z,100.00
2019-01-30T04:44:55.389Z,100.00
2019-01-30T04:47:22.954Z,100.00
2019-01-30T04:49:50.472Z,99.74
2019-01-30T04:52:17.914Z,97.73
2019-01-30T04:54:45.317Z,97.06
2019-01-30T04:57:12.805Z,98.02
2019-01-30T04:59:40.260Z,95.40
2019-01-30T05:02:07.715Z,96.67
2019-01-30T05:04:35.113Z,97.67
2019-01-30T05:07:02.549Z,95.88
2019-01-30T05:09:29.953Z,95.21
2019-01-30T05:11:57.492Z,93.69
2019-01-30T05:14:24.898Z,93.96
2019-01-30T05:16:52.373Z,95.87
2019-01-30T05:19:19.900Z,97.15
2019-01-30T05:21:47.297Z,94.81
2019-01-30T05:24:14.736Z,92.65
2019-01-30T05:26:42.283Z,93.78
2019-01-30T05:29:09.690Z,95.12
2019-01-30T05:31:37.146Z,94.68
2019-01-30T05:34:04.702Z,93.16
2019-01-30T05:36:32.161Z,94.00
2019-01-30T05:38:59.604Z,95.12
2019-01-30T05:41:27.051Z,96.35
2019-01-30T05:43:54.427Z,96.43
2019-01-30T05:46:21.911Z,95.94
2019-01-30T05:48:49.463Z,95.36
2019-01-30T05:51:16.837Z,94.15
2019-01-30T05:53:44.343Z,92.63
2019-01-30T05:56:11.878Z,93.33
2019-01-30T05:58:39.276Z,94.75
2019-01-30T06:01:06.733Z,95.82
2019-01-30T06:03:34.302Z,96.83
2019-01-30T06:06:01.672Z,97.89
2019-01-30T06:08:29.720Z,99.04
2019-01-30T06:10:57.236Z,99.79
2019-01-30T06:13:24.733Z,100.00
2019-01-30T06:15:52.217Z,100.00
2019-01-30T06:18:19.579Z,100.00
2019-01-30T06:20:47.020Z,100.00
2019-01-30T06:23:14.496Z,100.00
2019-01-30T06:25:42.070Z,98.92
2019-01-30T06:28:09.439Z,98.82
2019-01-30T06:30:36.901Z,99.05
2019-01-30T06:33:04.496Z,99.14
2019-01-30T06:35:32.178Z,99.81
2019-01-30T06:37:59.635Z,99.82
2019-01-30T06:40:29.963Z,100.00
2019-01-30T06:42:57.638Z,99.23
2019-01-30T06:45:25.321Z,99.72
2019-01-30T06:47:53.009Z,99.54
2019-01-30T06:50:20.891Z,98.53
2019-01-30T06:52:48.327Z,96.41
2019-01-30T06:55:15.711Z,94.51
2019-01-30T06:57:43.160Z,94.24
2019-01-30T07:00:18.582Z,94.05
2019-01-30T07:02:46.482Z,93.24
2019-01-30T07:05:14.159Z,91.77
2019-01-30T07:07:41.610Z,92.44
2019-01-30T07:10:13.324Z,92.77
2019-01-30T07:12:40.794Z,91.08
2019-01-30T07:15:08.441Z,90.75
2019-01-30T07:17:36.011Z,88.73
2019-01-30T07:20:04.602Z,90.34
2019-01-30T07:22:32.028Z,92.36
2019-01-30T07:24:59.419Z,93.75
2019-01-30T07:27:26.867Z,94.54
2019-01-30T07:29:54.368Z,91.96
2019-01-30T07:32:21.797Z,92.89
2019-01-30T07:34:49.236Z,93.16
2019-01-30T07:37:16.779Z,93.73
2019-01-30T07:39:44.209Z,93.88
2019-01-30T07:42:11.702Z,93.56
2019-01-30T07:44:39.135Z,95.05
2019-01-30T07:47:06.709Z,95.65
2019-01-30T07:49:34.101Z,94.76
2019-01-30T07:52:01.681Z,95.48
2019-01-30T07:54:29.217Z,96.16
2019-01-30T07:56:56.705Z,95.69
2019-01-30T07:59:24.138Z,94.69
2019-01-30T08:01:51.731Z,94.06
2019-01-30T08:04:19.174Z,94.03
2019-01-30T08:06:46.704Z,93.86
2019-01-30T08:09:14.146Z,94.68
2019-01-30T08:11:41.609Z,94.83
2019-01-30T08:14:09.124Z,93.75
2019-01-30T08:16:36.544Z,93.05
2019-01-30T08:19:04.152Z,93.68
2019-01-30T08:21:31.626Z,93.96
2019-01-30T08:23:59.466Z,91.39
2019-01-30T08:26:26.892Z,90.90
2019-01-30T08:28:54.388Z,91.72
2019-01-30T08:31:21.867Z,90.99
2019-01-30T08:33:49.329Z,91.79
2019-01-30T08:36:16.766Z,92.54
2019-01-30T08:38:44.248Z,91.32
2019-01-30T08:41:11.756Z,90.97
2019-01-30T08:43:39.142Z,91.15
2019-01-30T08:46:06.678Z,91.19
2019-01-30T08:48:34.252Z,91.26
2019-01-30T08:51:01.954Z,91.46
2019-01-30T08:53:29.577Z,91.25
2019-01-30T08:55:57.096Z,91.39
2019-01-30T08:58:24.453Z,90.27
2019-01-30T09:00:51.984Z,91.67
2019-01-30T09:03:19.528Z,91.68
2019-01-30T09:05:46.991Z,91.09
2019-01-30T09:08:14.603Z,89.44
2019-01-30T09:10:42.176Z,89.90
2019-01-30T09:13:09.642Z,88.53
2019-01-30T09:15:37.388Z,90.51
2019-01-30T09:18:05.224Z,89.04
2019-01-30T09:20:32.748Z,87.77
2019-01-30T09:23:00.146Z,86.44
2019-01-30T09:25:29.131Z,86.70
2019-01-30T09:27:57.015Z,86.68
2019-01-30T09:30:33.273Z,86.72
2019-01-30T09:33:00.749Z,85.94
2019-01-30T09:35:28.238Z,85.25
2019-01-30T09:37:56.175Z,85.61
2019-01-30T09:40:24.030Z,83.90
2019-01-30T09:42:51.490Z,82.85
2019-01-30T09:45:19.162Z,82.72
2019-01-30T09:47:46.618Z,83.42
2019-01-30T09:50:17.376Z,83.23
2019-01-30T09:52:44.880Z,81.89
2019-01-30T09:55:13.360Z,82.50
2019-01-30T09:57:40.801Z,82.72
2019-01-30T10:00:18.711Z,83.84
2019-01-30T10:02:46.289Z,83.75
2019-01-30T10:05:13.899Z,82.13
2019-01-30T10:07:41.345Z,80.82
2019-01-30T10:10:15.120Z,81.98
2019-01-30T10:12:42.623Z,83.11
2019-01-30T10:15:11.134Z,84.31
2019-01-30T10:17:38.629Z,82.75
2019-01-30T10:20:09.365Z,82.56
2019-01-30T10:22:36.789Z,81.26
2019-01-30T10:25:05.116Z,81.86
2019-01-30T10:27:32.582Z,80.32
2019-01-30T10:30:00.210Z,80.12
2019-01-30T10:32:27.835Z,80.86
2019-01-30T10:34:55.196Z,80.98
2019-01-30T10:37:22.809Z,80.85
2019-01-30T10:39:50.644Z,81.80
2019-01-30T10:42:18.049Z,81.62
2019-01-30T10:44:45.557Z,78.25
2019-01-30T10:47:13.124Z,80.36
2019-01-30T10:49:40.697Z,79.03
2019-01-30T10:52:08.239Z,79.28
2019-01-30T10:54:35.773Z,79.92
2019-01-30T10:57:03.728Z,78.46
2019-01-30T10:59:31.321Z,77.65
2019-01-30T11:01:58.888Z,78.39
2019-01-30T11:04:26.314Z,77.96
2019-01-30T11:06:53.745Z,79.21
2019-01-30T11:09:21.275Z,77.79
2019-01-30T11:11:48.786Z,78.13
2019-01-30T11:14:16.207Z,78.66
2019-01-30T11:16:43.660Z,78.63
2019-01-30T11:19:11.173Z,76.70
2019-01-30T11:21:38.636Z,77.07
2019-01-30T11:24:06.064Z,76.06
2019-01-30T11:26:33.641Z,77.14
2019-01-30T11:29:01.189Z,77.05
2019-01-30T11:31:28.680Z,76.76
2019-01-30T11:33:56.099Z,76.93
2019-01-30T11:36:23.593Z,76.14
2019-01-30T11:38:51.013Z,75.04
2019-01-30T11:41:18.495Z,75.38
2019-01-30T11:43:46.011Z,74.69
2019-01-30T11:46:13.706Z,74.14
2019-01-30T11:48:41.249Z,72.73
2019-01-30T11:51:08.803Z,73.21
2019-01-30T11:53:36.583Z,73.39
2019-01-30T11:56:05.065Z,73.20
2019-01-30T11:58:32.719Z,72.68
2019-01-30T12:01:03.369Z,73.06
2019-01-30T12:03:30.967Z,72.39
2019-01-30T12:05:58.414Z,71.85
2019-01-30T12:08:25.970Z,71.66
2019-01-30T12:10:53.441Z,70.28
2019-01-30T12:13:21.191Z,69.49
2019-01-30T12:15:48.828Z,69.22
2019-01-30T12:18:16.389Z,68.71
2019-01-30T12:20:43.970Z,68.46
2019-01-30T12:23:11.362Z,68.31
2019-01-30T12:25:38.815Z,69.77
2019-01-30T12:28:06.383Z,70.74
2019-01-30T12:30:33.829Z,70.85
2019-01-30T12:33:01.287Z,70.53
2019-01-30T12:35:28.781Z,69.91
2019-01-30T12:37:56.273Z,69.85
2019-01-30T12:40:24.337Z,69.96
2019-01-30T12:42:51.950Z,69.71
2019-01-30T12:45:38.199Z,68.46
2019-01-30T12:48:07.099Z,68.22
2019-01-30T12:50:34.691Z,67.94
2019-01-30T12:53:02.181Z,67.45
2019-01-30T12:55:30.105Z,66.87
2019-01-30T12:57:57.631Z,67.01
2019-01-30T13:00:31.046Z,66.17
2019-01-30T13:02:58.643Z,66.08
2019-01-30T13:05:28.659Z,66.49
2019-01-30T13:07:56.119Z,66.98
2019-01-30T13:10:23.696Z,67.23
2019-01-30T13:12:51.248Z,67.53
2019-01-30T13:15:19.926Z,67.12
2019-01-30T13:17:47.431Z,66.03
2019-01-30T13:20:16.716Z,66.29
2019-01-30T13:22:44.411Z,67.01
2019-01-30T13:25:12.852Z,67.44
2019-01-30T13:27:40.376Z,68.56
2019-01-30T13:30:12.338Z,68.86
2019-01-30T13:32:39.801Z,70.07
2019-01-30T13:35:07.453Z,69.92
2019-01-30T13:37:34.873Z,70.57
2019-01-30T13:40:03.005Z,70.80
2019-01-30T13:42:30.458Z,71.14
2019-01-30T13:44:57.830Z,72.57
2019-01-30T13:47:25.281Z,74.18
2019-01-30T13:49:52.851Z,74.95
2019-01-30T13:52:20.266Z,75.83
2019-01-30T13:54:47.756Z,76.90
2019-01-30T13:57:15.202Z,75.99
2019-01-30T13:59:42.667Z,76.14
2019-01-30T14:02:10.348Z,75.64
2019-01-30T14:04:37.793Z,75.30
2019-01-30T14:07:05.281Z,75.46
2019-01-30T14:09:32.767Z,77.00
2019-01-30T14:12:00.380Z,78.63
2019-01-30T14:14:27.833Z,79.26
2019-01-30T14:16:55.290Z,79.17
2019-01-30T14:19:22.761Z,79.05
2019-01-30T14:21:50.265Z,78.63
2019-01-30T14:24:17.703Z,78.18
2019-01-30T14:26:45.214Z,79.39
2019-01-30T14:29:12.721Z,80.64
2019-01-30T14:31:40.561Z,82.44
2019-01-30T14:34:09.113Z,83.08
2019-01-30T14:36:36.663Z,82.02
2019-01-30T14:39:07.660Z,81.54
2019-01-30T14:41:35.295Z,80.62
2019-01-30T14:44:02.938Z,81.44
2019-01-30T14:46:30.354Z,81.67
2019-01-30T14:48:57.799Z,80.83
2019-01-30T14:51:25.334Z,80.73
2019-01-30T14:53:52.768Z,80.32
2019-01-30T14:56:20.217Z,80.47
2019-01-30T14:58:47.875Z,80.57
2019-01-30T15:01:15.433Z,81.10
2019-01-30T15:03:43.063Z,82.06
2019-01-30T15:06:10.572Z,83.14
2019-01-30T15:08:38.061Z,83.47
2019-01-30T15:11:05.842Z,83.71
2019-01-30T15:13:33.326Z,84.77
2019-01-30T15:16:00.968Z,85.35
2019-01-30T15:18:28.389Z,87.07
2019-01-30T15:20:55.790Z,85.65
2019-01-30T15:23:23.214Z,88.12
2019-01-30T15:25:50.723Z,87.60
2019-01-30T15:28:18.118Z,88.57
2019-01-30T15:30:47.072Z,90.21
2019-01-30T15:33:14.769Z,92.23
2019-01-30T15:35:42.433Z,92.72
2019-01-30T15:38:12.459Z,94.08
2019-01-30T15:40:40.680Z,95.52
2019-01-30T15:43:08.116Z,95.64
2019-01-30T15:45:35.650Z,95.52
2019-01-30T15:48:03.521Z,95.29
2019-01-30T15:50:31.956Z,94.80
2019-01-30T15:53:01.254Z,93.21
2019-01-30T15:55:28.846Z,93.98
2019-01-30T15:58:02.589Z,94.47
2019-01-30T16:00:35.761Z,92.80
2019-01-30T16:03:03.404Z,93.27
2019-01-30T16:05:31.158Z,92.67
2019-01-30T16:07:58.680Z,92.14
2019-01-30T16:10:26.417Z,90.14
2019-01-30T16:12:53.910Z,88.71
2019-01-30T16:15:24.750Z,86.88
2019-01-30T16:17:52.273Z,86.42
2019-01-30T16:20:19.919Z,86.12
2019-01-30T16:22:47.508Z,86.78
2019-01-30T16:25:15.385Z,87.53
2019-01-30T16:27:42.907Z,86.44
2019-01-30T16:30:14.405Z,85.26
2019-01-30T16:32:41.992Z,84.81
2019-01-30T16:35:12.073Z,85.49
2019-01-30T16:37:39.655Z,85.44
2019-01-30T16:40:08.929Z,86.00
2019-01-30T16:42:36.396Z,84.52
2019-01-30T16:45:05.406Z,85.72
2019-01-30T16:47:32.829Z,85.90
2019-01-30T16:50:04.767Z,85.41
2019-01-30T16:52:36.064Z,86.64
2019-01-30T16:55:04.289Z,87.75
2019-01-30T16:57:36.078Z,86.53
2019-01-30T17:00:06.079Z,86.42
2019-01-30T17:02:33.639Z,89.62
2019-01-30T17:05:01.099Z,88.69
2019-01-30T17:07:28.703Z,88.73
2019-01-30T17:09:56.127Z,89.83
2019-01-30T17:12:23.661Z,90.35
2019-01-30T17:14:51.107Z,89.40
2019-01-30T17:17:18.604Z,90.26
2019-01-30T17:19:46.294Z,92.48
2019-01-30T17:22:13.944Z,93.91
2019-01-30T17:24:41.345Z,94.79
2019-01-30T17:27:08.937Z,95.91
2019-01-30T17:29:36.394Z,95.69
2019-01-30T17:32:08.185Z,97.00
2019-01-30T17:34:41.932Z,98.63
2019-01-30T17:37:09.766Z,99.69
2019-01-30T17:39:42.724Z,100.00
2019-01-30T17:42:14.870Z,100.00
2019-01-30T17:44:48.034Z,100.00
2019-01-30T17:47:15.506Z,100.00
2019-01-30T17:49:42.949Z,100.00
2019-01-30T17:52:12.480Z,100.00
2019-01-30T17:54:48.169Z,100.00
2019-01-30T17:57:15.788Z,100.00
2019-01-30T17:59:49.190Z,100.00
2019-01-30T18:02:17.127Z,100.00
2019-01-30T18:04:44.728Z,100.00
2019-01-30T18:07:12.169Z,100.00
2019-01-30T18:09:39.749Z,100.00
2019-01-30T18:12:07.206Z,100.00
2019-01-30T18:14:34.683Z,100.00
2019-01-30T18:17:02.063Z,100.00
2019-01-30T18:19:29.790Z,100.00
2019-01-30T18:21:57.207Z,100.00
2019-01-30T18:24:24.705Z,100.00
2019-01-30T18:26:52.162Z,100.00
2019-01-30T18:29:19.631Z,100.00
2019-01-30T18:31:47.116Z,100.00
2019-01-30T18:34:14.632Z,100.00
2019-01-30T18:36:42.130Z,100.00
2019-01-30T18:39:09.831Z,100.00
2019-01-30T18:41:37.534Z,100.00
2019-01-30T18:44:05.135Z,100.00
2019-01-30T18:46:32.611Z,100.00
2019-01-30T18:49:00.087Z,100.00
2019-01-30T18:51:27.535Z,100.00
2019-01-30T18:53:54.993Z,100.00
2019-01-30T18:56:22.652Z,100.00
2019-01-30T18:58:50.168Z,100.00
2019-01-30T19:01:17.618Z,100.00
2019-01-30T19:03:44.990Z,100.00
2019-01-30T19:06:12.444Z,100.00
2019-01-30T19:08:40.903Z,100.00
2019-01-30T19:11:08.450Z,100.00
2019-01-30T19:13:35.878Z,100.00
2019-01-30T19:16:03.855Z,100.00
2019-01-30T19:18:31.334Z,100.00
2019-01-30T19:20:58.807Z,100.00
2019-01-30T19:23:26.163Z,100.00
2019-01-30T19:25:53.595Z,100.00
2019-01-30T19:28:21.561Z,100.00
2019-01-30T19:30:49.051Z,100.00
2019-01-30T19:33:16.636Z,100.00
2019-01-30T19:35:44.239Z,100.00
2019-01-30T19:38:11.723Z,100.00
2019-01-30T19:40:39.279Z,100.00
2019-01-30T19:43:06.853Z,100.00
2019-01-30T19:45:34.338Z,100.00
2019-01-30T19:48:02.011Z,100.00
2019-01-30T19:50:30.086Z,100.00
2019-01-30T19:52:58.637Z,100.00
2019-01-30T19:55:26.414Z,100.00
2019-01-30T19:57:54.242Z,100.00
2019-01-30T20:00:27.450Z,100.00
2019-01-30T20:02:55.131Z,100.00
2019-01-30T20:05:22.936Z,100.00
2019-01-30T20:07:50.641Z,100.00
2019-01-30T20:10:23.813Z,99.78
2019-01-30T20:12:51.621Z,97.52
2019-01-30T20:15:19.310Z,98.35
2019-01-30T20:17:46.903Z,99.85
2019-01-30T20:20:15.879Z,99.81
2019-01-30T20:22:43.418Z,98.54
2019-01-30T20:25:14.345Z,99.30
2019-01-30T20:27:55.236Z,99.37
2019-01-30T20:30:26.072Z,98.52
2019-01-30T20:32:53.691Z,96.08
2019-01-30T20:35:21.402Z,97.93
2019-01-30T20:37:48.823Z,98.80
2019-01-30T20:40:21.908Z,98.93
2019-01-30T20:42:55.350Z,98.77
2019-01-30T20:45:33.559Z,98.24
2019-01-30T20:47:52.721Z,96.91
2019-01-30T20:50:25.252Z,98.55
2019-01-30T20:52:57.873Z,98.52
2019-01-30T20:55:33.898Z,97.42
2019-01-30T20:58:07.434Z,97.96
2019-01-30T21:00:37.090Z,99.21
2019-01-30T21:03:06.444Z,99.10
2019-01-30T21:05:44.847Z,99.29
2019-01-30T21:08:11.501Z,97.98
2019-01-30T21:10:40.846Z,98.63
2019-01-30T21:13:09.988Z,96.25
2019-01-30T21:15:37.403Z,96.14
2019-01-30T21:18:05.089Z,94.97
2019-01-30T21:20:32.897Z,93.78
2019-01-30T21:23:00.479Z,95.89
2019-01-30T21:25:27.938Z,95.72
2019-01-30T21:27:55.379Z,94.72
2019-01-30T21:30:25.404Z,94.90
2019-01-30T21:32:52.887Z,94.83
2019-01-30T21:35:20.365Z,95.26
2019-01-30T21:37:49.038Z,93.71
2019-01-30T21:40:17.296Z,92.97
2019-01-30T21:42:44.969Z,93.52
2019-01-30T21:45:15.174Z,94.24
2019-01-30T21:47:42.544Z,95.47
2019-01-30T21:50:10.517Z,96.45
2019-01-30T21:52:38.136Z,93.12
2019-01-30T21:55:07.387Z,89.23
2019-01-30T21:57:34.752Z,90.86
2019-01-30T22:00:02.324Z,89.78
2019-01-30T22:02:29.771Z,93.02
2019-01-30T22:04:57.193Z,91.97
2019-01-30T22:07:24.566Z,92.39
2019-01-30T22:09:52.110Z,91.48
2019-01-30T22:12:19.571Z,94.01
2019-01-30T22:14:47.047Z,93.79
2019-01-30T22:17:14.600Z,94.69
2019-01-30T22:19:42.069Z,95.01
2019-01-30T22:22:09.533Z,94.26
2019-01-30T22:24:37.104Z,94.30
2019-01-30T22:27:04.520Z,96.05
2019-01-30T22:29:31.966Z,89.81
2019-01-30T22:31:59.430Z,90.74
2019-01-30T22:34:26.859Z,87.11
2019-01-30T22:36:54.341Z,86.95
2019-01-30T22:39:21.790Z,89.34
2019-01-30T22:41:49.227Z,89.78
2019-01-30T22:44:16.633Z,91.66
2019-01-30T22:46:44.055Z,95.54
2019-01-30T22:49:11.500Z,96.99
2019-01-30T22:51:38.956Z,94.90
2019-01-30T22:54:06.457Z,94.24
2019-01-30T22:56:33.887Z,95.17
2019-01-30T22:59:01.317Z,95.53
2019-01-30T23:01:37.612Z,95.45
2019-01-30T23:04:41.593Z,94.20
2019-01-30T23:07:40.121Z,93.12
2019-01-30T23:10:53.954Z,90.71
2019-01-30T23:14:01.693Z,90.29
2019-01-30T23:17:04.257Z,91.29
2019-01-30T23:19:49.026Z,88.45
2019-01-30T23:23:08.378Z,90.81
2019-01-30T23:25:52.820Z,91.85
2019-01-30T23:29:20.143Z,91.76
2019-01-30T23:32:05.946Z,92.11
2019-01-30T23:35:15.441Z,88.01
2019-01-30T23:38:36.602Z,87.87
2019-01-30T23:41:31.667Z,87.98
2019-01-30T23:44:45.692Z,87.83
2019-01-30T23:47:42.034Z,89.97
2019-01-30T23:50:59.972Z,89.11
2019-01-30T23:53:59.664Z,88.80
2019-01-30T23:57:04.443Z,92.54
2019-01-30T23:59:48.593Z,92.41
